createdAt,value
2019-01-08T00:00:19.927Z,8.80
2019-01-08T00:02:51.055Z,8.80
2019-01-08T00:05:22.407Z,8.80
2019-01-08T00:07:54.857Z,8.90
2019-01-08T00:10:26.135Z,8.80
2019-01-08T00:12:57.170Z,8.80
2019-01-08T00:15:29.733Z,8.80
2019-01-08T00:18:01.228Z,8.80
2019-01-08T00:20:33.291Z,8.90
2019-01-08T00:23:03.074Z,8.80
2019-01-08T00:25:34.309Z,8.80
2019-01-08T00:28:05.413Z,8.80
2019-01-08T00:30:36.446Z,8.80
2019-01-08T00:33:06.973Z,8.80
2019-01-08T00:35:38.126Z,8.70
2019-01-08T00:38:11.037Z,8.70
2019-01-08T00:40:42.245Z,8.70
2019-01-08T00:43:15.092Z,8.60
2019-01-08T00:45:48.598Z,8.50
2019-01-08T00:48:19.114Z,8.50
2019-01-08T00:50:50.292Z,8.50
2019-01-08T00:53:21.487Z,8.50
2019-01-08T00:55:53.801Z,8.50
2019-01-08T00:58:24.977Z,8.40
2019-01-08T01:00:56.183Z,8.30
2019-01-08T01:03:27.385Z,8.30
2019-01-08T01:05:59.364Z,8.20
2019-01-08T01:08:31.333Z,8.10
2019-01-08T01:11:05.118Z,8.10
2019-01-08T01:13:37.263Z,8.10
2019-01-08T01:16:08.397Z,8.00
2019-01-08T01:18:39.534Z,8.10
2019-01-08T01:21:10.997Z,8.00
2019-01-08T01:23:43.125Z,7.90
2019-01-08T01:26:14.340Z,7.80
2019-01-08T01:28:47.147Z,7.90
2019-01-08T01:31:18.249Z,7.80
2019-01-08T01:33:52.039Z,7.80
2019-01-08T01:36:23.243Z,7.80
2019-01-08T01:38:54.497Z,7.80
2019-01-08T01:41:24.686Z,7.80
2019-01-08T01:43:56.139Z,7.70
2019-01-08T01:46:29.076Z,7.60
2019-01-08T01:49:00.279Z,7.70
2019-01-08T01:51:30.422Z,7.70
2019-01-08T01:54:01.651Z,7.50
2019-01-08T01:56:34.144Z,7.50
2019-01-08T01:59:08.667Z,7.40
2019-01-08T02:01:39.512Z,7.40
2019-01-08T02:04:10.649Z,7.40
2019-01-08T02:06:41.786Z,7.40
2019-01-08T02:09:12.925Z,7.40
2019-01-08T02:11:44.061Z,7.40
2019-01-08T02:14:15.243Z,7.40
2019-01-08T02:16:46.335Z,7.40
2019-01-08T02:19:18.213Z,7.30
2019-01-08T02:21:49.272Z,7.30
2019-01-08T02:24:21.462Z,7.20
2019-01-08T02:26:52.657Z,7.20
2019-01-08T02:29:23.726Z,7.20
2019-01-08T02:31:55.173Z,7.30
2019-01-08T02:34:24.952Z,7.30
2019-01-08T02:36:56.058Z,7.20
2019-01-08T02:39:26.253Z,7.20
2019-01-08T02:41:56.974Z,7.30
2019-01-08T02:44:27.444Z,7.30
2019-01-08T02:46:57.690Z,7.20
2019-01-08T02:49:29.165Z,7.20
2019-01-08T02:54:30.913Z,7.20
2019-01-08T02:57:02.990Z,7.10
2019-01-08T02:59:37.287Z,7.10
2019-01-08T03:02:09.653Z,7.00
2019-01-08T03:04:42.250Z,7.00
2019-01-08T03:07:13.459Z,7.00
2019-01-08T03:09:45.916Z,6.90
2019-01-08T03:12:18.483Z,6.90
2019-01-08T03:17:19.911Z,6.90
2019-01-08T03:19:51.060Z,6.90
2019-01-08T03:22:22.195Z,6.90
2019-01-08T03:24:51.963Z,6.90
2019-01-08T03:27:22.149Z,6.80
2019-01-08T03:29:54.319Z,6.80
2019-01-08T03:32:25.984Z,6.80
2019-01-08T03:34:58.923Z,6.80
2019-01-08T03:37:30.896Z,6.80
2019-01-08T03:40:03.458Z,6.70
2019-01-08T03:42:34.082Z,6.70
2019-01-08T03:45:05.209Z,6.70
2019-01-08T03:50:10.453Z,6.60
2019-01-08T03:52:40.722Z,6.60
2019-01-08T03:55:11.854Z,6.60
2019-01-08T03:57:48.266Z,6.60
2019-01-08T04:02:53.104Z,6.50
2019-01-08T04:07:55.090Z,6.60
2019-01-08T04:10:26.289Z,6.60
2019-01-08T04:12:57.426Z,6.60
2019-01-08T04:15:28.563Z,6.70
2019-01-08T04:17:59.749Z,6.80
2019-01-08T04:20:30.982Z,6.80
2019-01-08T04:23:01.185Z,6.80
2019-01-08T04:25:31.334Z,6.80
2019-01-08T04:28:03.654Z,6.80
2019-01-08T04:30:33.837Z,6.90
2019-01-08T04:33:04.129Z,6.90
2019-01-08T04:35:35.193Z,6.90
2019-01-08T04:38:05.491Z,6.90
2019-01-08T04:40:35.767Z,6.90
2019-01-08T04:43:06.823Z,6.90
2019-01-08T04:45:39.385Z,7.00
2019-01-08T04:48:11.287Z,7.00
2019-01-08T04:50:41.378Z,7.00
2019-01-08T04:53:12.841Z,6.90
2019-01-08T04:55:45.016Z,7.00
2019-01-08T04:58:17.578Z,6.90
2019-01-08T05:00:49.654Z,7.00
2019-01-08T05:03:20.177Z,6.90
2019-01-08T05:05:50.372Z,7.00
2019-01-08T05:08:24.453Z,7.00
2019-01-08T05:10:55.557Z,6.90
2019-01-08T05:13:26.695Z,6.90
2019-01-08T05:15:57.217Z,7.00
2019-01-08T05:20:58.342Z,7.00
2019-01-08T05:23:29.465Z,6.90
2019-01-08T05:26:00.535Z,6.90
2019-01-08T05:28:30.296Z,6.90
2019-01-08T05:36:02.590Z,6.70
2019-01-08T05:38:32.850Z,6.70
2019-01-08T05:41:04.037Z,6.70
2019-01-08T05:43:34.289Z,6.80
2019-01-08T05:46:04.577Z,6.80
2019-01-08T05:48:36.054Z,6.80
2019-01-08T05:51:06.248Z,6.90
2019-01-08T05:53:40.321Z,6.90
2019-01-08T05:56:10.494Z,6.80
2019-01-08T05:58:41.946Z,6.70
2019-01-08T06:01:12.102Z,6.60
2019-01-08T06:03:42.341Z,6.60
2019-01-08T06:08:43.249Z,6.60
2019-01-08T06:11:14.424Z,6.60
2019-01-08T06:13:44.718Z,6.50
2019-01-08T06:16:15.001Z,6.50
2019-01-08T06:18:48.669Z,6.50
2019-01-08T06:21:20.771Z,6.50
2019-01-08T06:23:50.498Z,6.50
2019-01-08T06:26:22.367Z,6.50
2019-01-08T06:28:52.653Z,6.50
2019-01-08T06:31:22.727Z,6.60
2019-01-08T06:33:54.779Z,6.70
2019-01-08T06:36:27.698Z,6.60
2019-01-08T06:38:59.015Z,6.60
2019-01-08T06:41:30.149Z,6.50
2019-01-08T06:44:01.322Z,6.50
2019-01-08T06:46:32.494Z,6.50
2019-01-08T06:49:04.918Z,6.50
2019-01-08T06:51:35.301Z,6.40
2019-01-08T06:54:06.525Z,6.30
2019-01-08T06:56:38.496Z,6.30
2019-01-08T06:59:11.341Z,6.20
2019-01-08T07:01:41.001Z,6.30
2019-01-08T07:04:14.030Z,6.40
2019-01-08T07:06:45.171Z,6.40
2019-01-08T07:09:16.310Z,6.30
2019-01-08T07:11:47.338Z,6.40
2019-01-08T07:14:18.442Z,6.40
2019-01-08T07:16:53.483Z,6.30
2019-01-08T07:19:24.685Z,6.40
2019-01-08T07:21:56.145Z,6.40
2019-01-08T07:24:28.886Z,6.40
2019-01-08T07:26:59.149Z,6.50
2019-01-08T07:29:30.273Z,6.50
2019-01-08T07:32:02.287Z,6.60
2019-01-08T07:34:33.490Z,6.70
2019-01-08T07:39:35.274Z,6.70
2019-01-08T07:42:08.373Z,6.70
2019-01-08T07:44:40.695Z,6.70
2019-01-08T07:47:11.929Z,6.70
2019-01-08T07:49:42.146Z,6.60
2019-01-08T07:52:13.378Z,6.60
2019-01-08T07:54:44.619Z,6.60
2019-01-08T07:57:15.117Z,6.60
2019-01-08T07:59:46.251Z,6.70
2019-01-08T08:02:17.390Z,6.60
2019-01-08T08:04:48.485Z,6.70
2019-01-08T08:07:18.906Z,6.60
2019-01-08T08:09:49.206Z,6.70
2019-01-08T08:12:20.135Z,6.70
2019-01-08T08:14:51.294Z,6.70
2019-01-08T08:17:22.399Z,6.60
2019-01-08T08:22:44.726Z,6.80
2019-01-08T08:25:15.781Z,6.80
2019-01-08T08:27:45.966Z,6.80
2019-01-08T08:30:17.093Z,6.80
2019-01-08T08:32:48.183Z,6.80
2019-01-08T08:35:20.301Z,6.80
2019-01-08T08:37:51.349Z,6.90
2019-01-08T08:40:21.670Z,6.90
2019-01-08T08:42:52.996Z,6.90
2019-01-08T08:45:24.159Z,7.00
2019-01-08T08:47:54.532Z,6.90
2019-01-08T08:50:26.878Z,7.00
2019-01-08T08:52:57.945Z,7.00
2019-01-08T08:55:28.262Z,7.00
2019-01-08T08:57:59.314Z,6.90
2019-01-08T09:00:29.582Z,6.90
2019-01-08T09:03:02.479Z,6.90
2019-01-08T09:08:06.164Z,6.90
2019-01-08T09:10:38.017Z,7.00
2019-01-08T09:13:08.202Z,7.00
2019-01-08T09:15:43.329Z,6.90
2019-01-08T09:18:14.575Z,6.90
2019-01-08T09:20:45.804Z,6.90
2019-01-08T09:23:19.355Z,7.00
2019-01-08T09:25:51.326Z,7.00
2019-01-08T09:28:21.445Z,7.00
2019-01-08T09:35:54.863Z,6.90
2019-01-08T09:40:57.186Z,6.90
2019-01-08T09:43:28.147Z,6.90
2019-01-08T09:45:58.422Z,6.90
2019-01-08T09:48:29.965Z,6.90
2019-01-08T09:51:03.011Z,6.90
2019-01-08T09:53:33.217Z,7.00
2019-01-08T09:56:04.337Z,7.00
2019-01-08T09:58:34.540Z,7.00
2019-01-08T10:01:08.080Z,7.10
2019-01-08T10:03:39.216Z,7.10
2019-01-08T10:06:08.979Z,7.10
2019-01-08T10:08:39.167Z,7.20
2019-01-08T10:11:09.316Z,7.10
2019-01-08T10:13:39.045Z,7.10
2019-01-08T10:16:10.201Z,7.10
2019-01-08T10:18:40.373Z,7.10
2019-01-08T10:23:43.061Z,7.00
2019-01-08T10:26:13.269Z,7.20
2019-01-08T10:28:43.454Z,7.20
2019-01-08T10:31:14.685Z,7.20
2019-01-08T10:33:45.858Z,7.30
2019-01-08T10:36:18.150Z,7.30
2019-01-08T10:38:50.606Z,7.30
2019-01-08T10:41:21.122Z,7.40
2019-01-08T10:43:52.186Z,7.40
2019-01-08T10:46:23.228Z,7.50
2019-01-08T10:48:55.602Z,7.40
2019-01-08T10:51:25.761Z,7.40
2019-01-08T10:53:58.606Z,7.40
2019-01-08T10:56:28.905Z,7.40
2019-01-08T11:01:31.601Z,7.10
2019-01-08T11:06:33.453Z,7.00
2019-01-08T11:09:05.194Z,7.10
2019-01-08T11:11:36.354Z,7.20
2019-01-08T11:14:08.430Z,7.20
2019-01-08T11:16:41.448Z,7.20
2019-01-08T11:19:12.590Z,7.30
2019-01-08T11:21:43.721Z,7.30
2019-01-08T11:24:14.321Z,7.40
2019-01-08T11:26:45.579Z,7.40
2019-01-08T11:31:49.198Z,7.50
2019-01-08T11:34:19.485Z,7.70
2019-01-08T11:36:51.829Z,7.60
2019-01-08T11:39:22.022Z,7.60
2019-01-08T11:41:54.165Z,7.40
2019-01-08T11:44:24.528Z,7.40
2019-01-08T11:46:54.743Z,7.40
2019-01-08T11:49:27.552Z,7.30
2019-01-08T11:54:30.554Z,7.40
2019-01-08T11:57:01.621Z,7.50
2019-01-08T11:59:32.731Z,7.40
2019-01-08T12:02:02.977Z,7.40
2019-01-08T12:04:33.238Z,7.30
2019-01-08T12:09:54.538Z,7.30
2019-01-08T12:12:25.909Z,7.20
2019-01-08T12:14:57.095Z,7.10
2019-01-08T12:17:28.261Z,7.10
2019-01-08T12:20:00.310Z,7.20
2019-01-08T12:22:31.441Z,7.20
2019-01-08T12:25:03.102Z,7.30
2019-01-08T12:30:24.517Z,7.60
2019-01-08T12:32:55.938Z,7.70
2019-01-08T12:35:26.457Z,7.80
2019-01-08T12:37:58.669Z,7.90
2019-01-08T12:40:28.942Z,7.80
2019-01-08T12:43:00.072Z,7.90
2019-01-08T12:45:31.239Z,7.90
2019-01-08T12:48:02.491Z,7.80
2019-01-08T12:50:33.582Z,7.80
2019-01-08T12:53:04.654Z,7.80
2019-01-08T12:55:35.861Z,7.80
2019-01-08T12:58:06.994Z,7.80
2019-01-08T13:00:38.515Z,7.80
2019-01-08T13:03:12.915Z,8.00
2019-01-08T13:08:17.481Z,8.20
2019-01-08T13:10:48.333Z,8.20
2019-01-08T13:13:19.454Z,8.20
2019-01-08T13:15:50.594Z,8.20
2019-01-08T13:18:21.118Z,8.20
2019-01-08T13:23:24.070Z,8.30
2019-01-08T13:25:55.288Z,8.20
2019-01-08T13:28:28.282Z,8.10
2019-01-08T13:30:58.469Z,8.10
2019-01-08T13:33:29.702Z,8.00
2019-01-08T13:35:59.383Z,8.00
2019-01-08T13:38:31.701Z,8.10
2019-01-08T13:41:01.857Z,8.10
2019-01-08T13:43:33.033Z,8.10
2019-01-08T13:46:05.590Z,8.10
2019-01-08T13:51:07.870Z,7.90
2019-01-08T13:56:30.922Z,7.50
2019-01-08T14:01:36.990Z,7.30
2019-01-08T14:04:07.165Z,7.30
2019-01-08T14:09:08.098Z,7.10
2019-01-08T14:11:40.493Z,7.20
2019-01-08T14:16:42.250Z,7.40
2019-01-08T14:21:43.859Z,7.50
2019-01-08T14:24:14.489Z,7.50
2019-01-08T14:26:48.009Z,7.60
2019-01-08T14:29:19.150Z,7.60
2019-01-08T14:31:50.426Z,7.50
2019-01-08T14:34:21.469Z,7.50
2019-01-08T14:36:55.419Z,7.60
2019-01-08T14:39:26.446Z,7.40
2019-01-08T14:44:30.346Z,7.30
2019-01-08T14:47:03.173Z,7.20
2019-01-08T14:49:36.140Z,7.20
2019-01-08T14:54:37.346Z,7.10
2019-01-08T14:59:40.730Z,7.00
2019-01-08T15:07:10.598Z,6.90
2019-01-08T15:09:41.721Z,6.90
2019-01-08T15:12:12.862Z,6.90
2019-01-08T15:17:16.178Z,6.90
2019-01-08T15:22:17.151Z,7.00
2019-01-08T15:27:21.286Z,7.10
2019-01-08T15:29:51.521Z,7.10
2019-01-08T15:34:51.494Z,7.20
2019-01-08T15:37:23.602Z,7.20
2019-01-08T15:39:53.307Z,7.30
2019-01-08T15:42:25.053Z,7.30
2019-01-08T15:44:57.902Z,7.30
2019-01-08T15:47:32.329Z,7.30
2019-01-08T15:50:03.811Z,7.30
2019-01-08T15:52:34.915Z,7.30
2019-01-08T15:55:06.925Z,7.40
2019-01-08T16:05:15.121Z,7.20
2019-01-08T16:07:45.516Z,7.20
2019-01-08T16:12:50.948Z,7.00
2019-01-08T16:17:51.960Z,7.10
2019-01-08T16:20:24.776Z,7.10
2019-01-08T16:25:28.472Z,7.10
2019-01-08T16:27:59.502Z,7.20
2019-01-08T16:30:30.602Z,7.20
2019-01-08T16:33:01.835Z,7.20
2019-01-08T16:38:03.557Z,7.20
2019-01-08T16:40:35.533Z,7.30
2019-01-08T16:43:06.655Z,7.30
2019-01-08T16:45:37.775Z,7.30
2019-01-08T16:48:07.931Z,7.40
2019-01-08T16:50:39.527Z,7.40
2019-01-08T17:00:45.335Z,7.30
2019-01-08T17:03:24.507Z,7.30
2019-01-08T17:05:48.338Z,7.30
2019-01-08T17:08:18.537Z,7.30
2019-01-08T17:10:52.617Z,7.30
2019-01-08T17:13:23.827Z,7.30
2019-01-08T17:18:24.846Z,7.30
2019-01-08T17:20:56.959Z,7.30
2019-01-08T17:23:28.038Z,7.30
2019-01-08T17:25:59.112Z,7.30
2019-01-08T17:28:29.297Z,7.20
2019-01-08T17:33:33.973Z,7.30
2019-01-08T17:36:03.369Z,7.40
2019-01-08T17:38:33.538Z,7.40
2019-01-08T17:41:04.565Z,7.30
2019-01-08T17:43:35.943Z,7.30
2019-01-08T17:46:06.221Z,7.30
2019-01-08T17:48:37.286Z,7.20
2019-01-08T17:51:09.349Z,7.20
2019-01-08T17:53:40.554Z,7.20
2019-01-08T17:56:10.750Z,7.20
2019-01-08T17:58:43.906Z,7.10
2019-01-08T18:01:20.893Z,7.20
2019-01-08T18:03:51.055Z,7.20
2019-01-08T18:06:20.738Z,7.20
2019-01-08T18:08:51.863Z,7.20
2019-01-08T18:11:22.076Z,7.20
2019-01-08T18:13:54.949Z,7.20
2019-01-08T18:16:27.721Z,7.10
2019-01-08T18:18:57.925Z,7.10
2019-01-08T18:21:30.056Z,7.10
2019-01-08T18:24:01.197Z,7.10
2019-01-08T18:26:31.404Z,7.00
2019-01-08T18:29:02.557Z,7.00
2019-01-08T18:31:34.009Z,7.10
2019-01-08T18:34:06.406Z,7.10
2019-01-08T18:36:37.973Z,7.00
2019-01-08T18:39:09.160Z,7.10
2019-01-08T18:41:40.201Z,7.00
2019-01-08T18:44:11.350Z,7.10
2019-01-08T18:46:44.558Z,6.80
2019-01-08T18:51:46.726Z,7.00
2019-01-08T18:59:19.298Z,6.80
2019-01-08T19:01:51.206Z,6.60
2019-01-08T19:04:24.166Z,6.20
2019-01-08T19:09:27.681Z,4.90
2019-01-08T19:14:31.457Z,4.60
2019-01-08T19:19:34.662Z,4.50
2019-01-08T19:22:06.406Z,4.40
2019-01-08T19:29:39.658Z,4.50
2019-01-08T19:32:10.799Z,4.70
2019-01-08T19:34:40.561Z,4.80
2019-01-08T19:39:41.769Z,5.00
2019-01-08T19:42:12.802Z,5.00
2019-01-08T19:44:44.477Z,5.00
2019-01-08T19:47:15.602Z,5.20
2019-01-08T19:57:21.286Z,5.50
2019-01-08T19:59:51.528Z,5.60
2019-01-08T20:02:21.299Z,5.60
2019-01-08T20:09:53.774Z,5.80
2019-01-08T20:12:24.877Z,5.90
2019-01-08T20:17:25.825Z,6.00
2019-01-08T20:19:56.981Z,5.90
2019-01-08T20:22:28.626Z,6.10
2019-01-08T20:25:01.098Z,6.10
2019-01-08T20:37:35.322Z,6.10
2019-01-08T20:40:05.931Z,6.00
2019-01-08T20:42:37.386Z,6.00
2019-01-08T20:45:08.521Z,6.00
2019-01-08T20:47:42.571Z,6.00
2019-01-08T20:50:13.855Z,6.00
2019-01-08T21:00:14.511Z,6.00
2019-01-08T21:02:45.670Z,6.00
2019-01-08T21:07:46.754Z,6.10
2019-01-08T21:12:49.870Z,6.00
2019-01-08T21:15:21.325Z,6.10
2019-01-08T21:17:52.903Z,6.10
2019-01-08T21:20:24.874Z,6.10
2019-01-08T21:22:55.978Z,6.10
2019-01-08T21:25:25.441Z,6.10
2019-01-08T21:32:57.011Z,6.00
2019-01-08T21:40:29.366Z,6.10
2019-01-08T21:43:00.477Z,6.00
2019-01-08T21:45:31.765Z,6.00
2019-01-08T21:48:02.017Z,5.90
2019-01-08T21:50:33.160Z,5.90
2019-01-08T21:53:04.410Z,5.80
2019-01-08T21:55:38.533Z,5.80
2019-01-08T22:03:10.094Z,5.80
2019-01-08T22:08:12.718Z,5.80
2019-01-08T22:13:13.540Z,5.90
2019-01-08T22:15:43.706Z,5.90
2019-01-08T22:25:46.069Z,5.80
2019-01-08T22:30:47.898Z,5.80
2019-01-08T22:33:22.920Z,5.80
2019-01-08T22:35:54.249Z,5.80
2019-01-08T22:58:34.718Z,5.50
2019-01-08T23:01:07.462Z,5.40
2019-01-08T23:06:08.741Z,5.30
2019-01-08T23:08:39.765Z,5.30
2019-01-08T23:11:09.549Z,5.20
2019-01-08T23:13:39.747Z,5.20
2019-01-08T23:23:44.940Z,5.20
2019-01-08T23:31:18.962Z,5.20
2019-01-08T23:36:20.909Z,5.20
2019-01-08T23:39:01.657Z,5.20
2019-01-08T23:41:31.842Z,5.20
2019-01-08T23:44:04.238Z,5.20
2019-01-08T23:49:05.269Z,5.20
2019-01-08T23:54:06.704Z,5.20
2019-01-08T23:56:37.834Z,5.00
2019-01-08T23:59:08.030Z,5.10
